Observation of Berlin-Dahlem in FM12 format


Date: 03.02.2023

Hour: 02 UTC
NIL The FM12 has been submitted too late!
Hour: 1 UTC

SNDL DWBD 030100 CCA
AAXX 03011
10381 41570 72104 10019 20015 30103 40203 57022 76162 8702/
    333 55300 87523
    555 00013 1004/ 22044 2300 2465 91008 91108 91204
  BOT 10010 20015 30024 40041 50053
   666 10019 20014=
Hour: 0 UTC

SMDL DWBD 030000
AAXX 03001
10381 02682 62003 10014 20005 30116 40217 57014 60001 865//
    333 31/// 55300 60007 86643
    555 00004 10000 22029 2300 2401 91005 91106 91204
  BOT 10010 20015 30025 40041 50053
           80000 100000
   666 10015 20007=

Yesterday Synops


Hour: 23 UTC

SNDL DWBD 022300
AAXX 02231
10381 42982 62003 10007 20000 30123 40224 58007 8601/
    333 55300 86458
    555 01006 10000 22031 2300 2405 91004 91104 91203
  BOT 10009 20016 30026 40042 50053
   666 10007 20001=
Hour: 22 UTC

SNDL DWBD 022200
AAXX 02221
10381 42982 72103 10001 21008 30125 40226 58003 82078
    333 55300 82361 86270
    555 01023 10000 22029 2300 2405 91004 91104 91203
  BOT 10009 20017 30027 40042 50053
   666 10005 21005=
Hour: 21 UTC

SIDL DWBD 022100
AAXX 02211
10381 22982 72103 11005 21014 30130 40232 51003 8707/
    333 55300 60007 85363
    555 01017 10000 22028 2300 2407 91004 91105 91204
  BOT 10010 20018 30029 40042 50053
   666 11003 21008=
Hour: 20 UTC

SNDL DWBD 022000
AAXX 02201
10381 42982 62504 11007 21019 30130 40232 52012 86010
    333 55300 86465
    555 01024 10000 22040 2300 2405 91005 91105 91204
  BOT 10010 20019 30030 40042 50053
   666 10001 21009=
Hour: 19 UTC

SNDL DWBD 021900
AAXX 02191
10381 42982 62403 10001 21020 30128 40229 52023 80008
    333 55300 86268
    555 01031 10000 22030 2300 2405 91004 91104 91203
  BOT 10011 20021 30033 40042 50053
   666 10010 20001=
Hour: 18 UTC

SMDL DWBD 021800 CCC
AAXX 02181
10381 01982 73402 10010 21028 30127 40228 52034 69932 70382 80008
    333 10064 20009 31003 55300 60007 87270 91115
    555 01030 10000 22020 2300 2462 91003 91103 91203
  BOT 10012 20024 30035 40042 50053
           80000 100036
   666 10033 20009=
Hour: 17 UTC

SNDL DWBD 021700
AAXX 02171
10381 42982 43203 10033 21028 30118 40218 52037 80001
    333 55300 84070
    555 00000 10000 22025 2300 2405 91004 91106 91204
  BOT 10017 20030 30038 40041 50053
   666 10045 20033=
Hour: 16 UTC

SNDL DWBD 021600
AAXX 02161
10381 42482 43305 10043 21016 30105 40205 52033 81201
    333 55304 81816 83080
    555 00017 10000 22045 2322 2405 91007 91110 91206
  BOT 10025 20035 30040 40041 50053
   666 10052 20043=
Hour: 15 UTC

SIDL DWBD 021500 CCA
AAXX 02151
10381 21482 43205 10052 21012 30093 40192 52028 70281 82205
    333 55308 69937 82816 91115
    555 00036 10000 22054 2350 2467 91009 91111 91207
  BOT 10034 20041 30041 40041 50053
   666 10058 20052=
Hour: 14 UTC

SNDL DWBD 021400
AAXX 02141
10381 42481 43105 10056 20009 30081 40180 52022 83201
    333 55310 83816
    555 00049 10000 22052 2357 2405 91010 91110 91205
  BOT 10043 20044 30041 40041 50053
   666 10056 20041=
Hour: 13 UTC

SNDL DWBD 021300
AAXX 02131
10381 41481 33105 10041 20019 30072 40171 52019 72511 83831
    333 55302 83815 91115
    555 00039 1003/ 22048 2311 2465 91009 91115 91208
  BOT 10046 20044 30040 40041 50053
   666 10064 20038=
Hour: 12 UTC

SMDL DWBD 021200
AAXX 02121
10381 01581 73108 10064 20000 30065 40163 52019 69901 70381 878//
    333 31/// 55302 60007 85825 91115
    555 00065 10000 22076 2313 2461 91012 91113 91208
  BOT 10053 20044 30038 40041 50053
           80000 199996
   666 10064 20059=
Hour: 11 UTC

SNDL DWBD 021100
AAXX 02111
10381 42580 63106 10059 20010 30059 40158 52021 86200
    333 55301 86821
    555 00062 10000 22061 2307 2405 91011 91112 91208
  BOT 10046 20040 30036 40041 50053
   666 10060 20056=
Hour: 10 UTC

SNDL DWBD 021000
AAXX 02101
10381 42480 73008 10056 20017 30053 40152 52024 878//
    333 55307 86816 91115
    555 00058 10000 22076 2342 2405 91012 91115 91210
  BOT 10042 20035 30034 40040 50053
   666 10056 20051=
Hour: 9 UTC

SIDL DWBD 020900
AAXX 02091
10381 21480 32908 10051 20019 30046 40145 52027 72511 83800
    333 20034 3/002 55305 69907 82815 91115
    555 00041 1999/ 22082 2330 2467 91013 91114 91209
  BOT 10031 20032 30034 40041 50053
   666 10051 20047=
Hour: 8 UTC

SNDL DWBD 020800
AAXX 02081
10381 41470 62907 10049 20017 30038 40137 52029 71522 86800
    333 55302 82816 84633 91114
    555 00046 10000 22069 2311 2405 91011 91114 91209
  BOT 10030 20031 30034 40041 50053
   666 10049 20047=
Hour: 7 UTC

SNDL DWBD 020700
AAXX 02071
10381 42481 72908 10048 20016 30029 40128 52031 878//
    333 55300 81816 87640 91115
    555 00038 10000 22080 2300 2405 91014 91115 91209
  BOT 10030 20032 30034 40041 50053
   666 10049 20047=
Hour: 6 UTC

SMDL DWBD 020600
AAXX 02061
10381 01582 72908 10048 20019 30019 40118 52031 69952 72086 875//
    333 10050 20034 31002 55002 55300 69917 70084 83620 87635 91122 91211
    555 00038 1999/ 20044 22079 2300 2484 91013 91116 91210
  BOT 10033 20032 30034 40041 50053
           80000 100046 20010 3221 4126 605//04 70063 80019 900070
   666 10048 20046=
Hour: 5 UTC

SNDL DWBD 020500 CCA
AAXX 02051
10381 41481 72810 10047 20022 30009 40107 52026 76022 875//
    333 55300 87615 91116
    555 00038 1999/ 22095 2300 2465 91016 91116 91210
  BOT 10032 20032 30034 40041 50053
   666 10048 20046=
Hour: 4 UTC

SNDL DWBD 020400
AAXX 02041
10381 41483 72810 10048 20024 39998 40096 52017 72522 875//
    333 55300 82615 87632 91122 91211
    555 00039 1001/ 22099 2300 2465 91017 91122 91211
  BOT 10032 20031 30033 40041 50053
   666 10049 20046=
Hour: 3 UTC

SIDL DWBD 020300
AAXX 02031
10381 21465 72810 10047 20025 39988 40086 53004 78086 878//
    333 55300 69937 82815 85625 91118 91211
    555 00036 1002/ 22097 2300 2467 91015 91116 91210
  BOT 10031 20030 30033 40041 50053
   666 10048 20043=
Hour: 2 UTC

SNDL DWBD 020200
AAXX 02021
10381 41568 72709 10045 20023 39983 40081 55005 76166 875//
    333 55300 87626 91118 91211
    555 00034 1001/ 22089 2300 2465 91015 91118 91211
  BOT 10029 20029 30032 40041 50053
   666 10050 20044=
Hour: 1 UTC

SNDL DWBD 020100
AAXX 02011
10381 41572 72710 10050 20014 39981 40079 58007 76122 875//
    333 55300 87633 91118
    555 00041 1999/ 22097 2300 2465 91016 91118 91210
  BOT 10026 20027 30032 40041 50053
   666 10050 20042=
Hour: 0 UTC

SMDL DWBD 020000
AAXX 02001
10381 01580 62709 10042 20012 39984 40082 58003 69911 72161 83530
    333 31/// 55300 69907 83624 83365 91117
    555 00033 1999/ 22091 2300 2461 91015 91117 91209
  BOT 10021 20026 30033 40041 50053
           80000 100016
   666 10043 20037=

The day before yesterday Synops


Hour: 23 UTC

SNDL DWBD 012300
AAXX 01231
10381 42580 52708 10037 20010 39988 40087 51002 85500
    333 55300 85622 91117
    555 00024 10000 22081 2300 2405 91015 91117 91210
  BOT 10020 20027 30034 40041 50053
   666 10038 20034=
Hour: 22 UTC

SNDL DWBD 012200
AAXX 01221
10381 42481 42709 10036 20014 39988 40087 52005 83830
    333 55300 81713 91117
    555 00023 10000 22086 2300 2405 91015 91117 91210
  BOT 10023 20030 30035 40041 50053
   666 10037 20034=
Hour: 21 UTC

SIDL DWBD 012100 CCA
AAXX 01211
10381 21475 72709 10037 20017 39987 40086 52007 70365 878//
    333 55300 69917 82815 86648 91115
    555 00028 10000 22088 2300 2467 91015 91115 91209
  BOT 10029 20033 30036 40041 50053
   666 10041 20037=
Hour: 20 UTC

SNDL DWBD 012000 CCB
AAXX 01201
10381 42475 72707 10039 20024 39986 40084 52008 875//
    333 55300 87616 91114
    555 00033 10000 22071 2300 2405 91012 91114 91208
  BOT 10032 20034 30037 40040 50053
   666 10040 20037=
Hour: 19 UTC

SNDL DWBD 011900 CCA
AAXX 01191
10381 41475 72808 10038 20026 39983 40081 52013 72152 875//
    333 55300 87616 91115
    555 00031 1001/ 22075 2300 2465 91014 91115 91209
  BOT 10033 20034 30037 40040 50053
   666 10038 20034=
Hour: 18 UTC

SMDL DWBD 011800 CCB
AAXX 01181
10381 01568 82809 10034 20022 39980 40079 53010 60082 76175 885//
    333 10063 20019 32001 55300 60057 88623 91122 91213
    555 00029 1999/ 22087 2300 2482 91015 91116 91209
  BOT 10032 20035 30038 40040 50053
           80000 100518
   666 10034 20024=
Hour: 17 UTC

SNDL DWBD 011700 CCB
AAXX 01171
10381 41570 82808 10024 20017 39978 40077 55001 72366 885//
    333 55300 88620
    555 00021 1027/ 22080 2300 2485 91012 91112 91208
  BOT 10032 20037 30040 40040 50053
   666 10035 20019=
Hour: 16 UTC

SNDL DWBD 011600
AAXX 01161
10381 41457 82806 10035 20021 39970 40068 56012 76166 8352/
    333 55300 83616 88462 91122 91213
    555 00030 1024/ 22061 2300 2465 91011 91122 91213
  BOT 10040 20041 30040 40040 50053
   666 10063 20035=
Hour: 15 UTC

SIDL DWBD 011500 CCC
AAXX 01151
10381 21570 82509 10062 20016 39970 40068 57020 76052 8551/
    333 55300 69907 85629 88462 91115
    555 00052 1999/ 22092 2300 2467 91014 91115 91210
  BOT 10046 20043 30040 40039 50053
   666 10062 20060=
Hour: 14 UTC

SNDL DWBD 011400 CCA
AAXX 01141
10381 41575 72607 10061 20021 39979 40077 57016 71522 8581/
    333 55300 85826 87462 91115
    555 00057 10000 22067 2300 2405 91011 91115 91209
  BOT 10050 20044 30039 40039 50053
   666 10062 20060=
Hour: 13 UTC

SNDL DWBD 011300
AAXX 01131
10381 42581 72607 10060 20024 39982 40080 58012 878//
    333 55302 85826 87640 91115
    555 00059 10000 22073 2309 2405 91013 91115 91208
  BOT 10053 20043 30036 40039 50053
   666 10061 20054=
Hour: 12 UTC

SMDL DWBD 011200
AAXX 01121
10381 01581 72708 10054 20032 39990 40088 50004 60031 72586 86801
    333 31/// 55301 60017 84823 85635 91115
    555 00057 1999/ 22076 2300 2461 91013 91113 91208
  BOT 10049 20038 30034 40039 50053
           80000 100286
   666 10054 20040=
Hour: 11 UTC

SNDL DWBD 011100
AAXX 01111
10381 41468 72707 10040 20028 39995 40094 53008 78062 878//
    333 55300 85811 87621 91114
    555 00038 1007/ 22071 2300 2465 91014 91114 91208
  BOT 10040 20034 30033 40039 50053
   666 10041 20039=
Hour: 10 UTC

SNDL DWBD 011000
AAXX 01101
10381 41370 82807 10039 20027 39994 40093 53002 76162 877//
    333 55300 87708 91115
    555 00038 1003/ 22074 2300 2465 91013 91115 91209
  BOT 10036 20032 30032 40039 50053
   666 10040 20038=
Hour: 9 UTC

SIDL DWBD 010900
AAXX 01091
10381 21358 82608 10040 20029 39986 40084 57010 76162 8672/
    333 20035 3/002 55300 60027 86708 88525 91115
    555 00035 1014/ 22076 2300 2467 91013 91114 91209
  BOT 10032 20030 30031 40039 50053
   666 10043 20037=
Hour: 8 UTC

SNDL DWBD 010800
AAXX 01081
10381 41459 82607 10043 20016 39987 40085 57013 76166 8672/
    333 55300 86711 88526 91115
    555 00033 1004/ 22070 2300 2465 91013 91115 91208
  BOT 10031 20029 30031 40039 50053
   666 10049 20043=
Hour: 7 UTC

SNDL DWBD 010700
AAXX 01071
10381 41570 82506 10047 20011 39992 40090 57010 76162 8652/
    333 55300 86623 88550 91113
    555 00033 1999/ 22061 2300 2465 91011 91113 91208
  BOT 10028 20028 30030 40039 50053
   666 10051 20047=
Hour: 6 UTC

SMDL DWBD 010600
AAXX 01061
10381 01481 72607 10051 20008 39996 40094 57011 60032 72161 875//
    333 10065 20032 31001 55000 55300 69907 70057 81615 87621 91118
    555 00045 1999/ 20042 22071 2300 2484 91013 91114 91209
  BOT 10027 20027 30030 40039 50053
           80000 199996 20000 3206 4123 613//06 70065 80024 900060
   666 10052 20051=
Hour: 5 UTC

SNDL DWBD 010500
AAXX 01051
10381 42580 82607 10051 20008 30000 40098 57008 875//
    333 55300 85625 87646 91113
    555 00042 10000 22072 2300 2405 91011 91113 91208
  BOT 10025 20025 30029 40039 50053
   666 10051 20045=
Hour: 4 UTC

SNDL DWBD 010400
AAXX 01041
10381 42581 72707 10045 20006 30002 40100 57010 8352/
    333 55300 83625 87463 91114
    555 00032 10000 22074 2300 2405 91012 91114 91209
  BOT 10020 20024 30029 40039 50053
   666 10047 20044=
Hour: 3 UTC

SIDL DWBD 010300 CCA
AAXX 01031
10381 21581 72707 10044 20007 30007 40106 58004 70261 8551/
    333 55300 69907 85625 87466 91118
    555 00031 10000 22067 2300 2467 91012 91118 91209
  BOT 10020 20024 30030 40040 50053
   666 10046 20044=
Hour: 2 UTC

SNDL DWBD 010200
AAXX 01021
10381 42581 72708 10044 20009 30008 40107 58004 8111/
    333 55300 81820 87467 91115
    555 00031 10000 22077 2300 2405 91012 91115 91209
  BOT 10019 20024 30031 40039 50053
   666 10044 20039=
Hour: 1 UTC

SNDL DWBD 010100
AAXX 01011
10381 41581 42708 10044 20008 30012 40111 55000 72100 83810
    333 55300 81820 83650 91117
    555 00029 1999/ 22082 2300 2465 91015 91117 91210
  BOT 10021 20026 30032 40039 50053
   666 10048 20044=
Hour: 0 UTC

SMDL DWBD 010000
AAXX 01001
10381 01578 32708 10045 20015 30011 40110 50002 60031 72598 83800
    333 31/// 55300 60017 81830 83650 91121 91212 96488
    555 00025 1999/ 22075 2300 2481 91013 91115 91209
  BOT 10021 20026 30032 40039 50053
           80000 100278
   666 10046 20040=